createdAt,value
2017-07-23T00:01:58.971Z,20.00
2017-07-23T00:04:26.474Z,20.00
2017-07-23T00:06:54.087Z,20.10
2017-07-23T00:09:21.583Z,20.10
2017-07-23T00:11:49.139Z,20.00
2017-07-23T00:14:16.631Z,19.90
2017-07-23T00:16:44.129Z,19.90
2017-07-23T00:19:11.647Z,19.80
2017-07-23T00:21:39.177Z,19.70
2017-07-23T00:24:06.693Z,19.70
2017-07-23T00:26:34.200Z,19.70
2017-07-23T00:29:01.711Z,19.70
2017-07-23T00:31:29.289Z,19.60
2017-07-23T00:33:56.768Z,19.70
2017-07-23T00:36:25.104Z,19.70
2017-07-23T00:38:52.611Z,19.80
2017-07-23T00:41:20.082Z,19.90
2017-07-23T00:43:47.653Z,19.90
2017-07-23T00:46:15.087Z,20.00
2017-07-23T00:48:42.600Z,19.90
2017-07-23T00:51:10.052Z,19.80
2017-07-23T00:53:37.779Z,19.80
2017-07-23T00:56:05.274Z,19.80
2017-07-23T00:58:32.771Z,19.80
2017-07-23T01:01:00.289Z,19.90
2017-07-23T01:03:27.803Z,19.90
2017-07-23T01:05:55.429Z,19.80
2017-07-23T01:08:23.739Z,19.80
2017-07-23T01:10:51.254Z,19.80
2017-07-23T01:13:18.769Z,19.70
2017-07-23T01:15:46.389Z,19.80
2017-07-23T01:18:13.876Z,19.90
2017-07-23T01:20:41.315Z,19.80
2017-07-23T01:23:09.796Z,19.90
2017-07-23T01:25:37.256Z,19.90
2017-07-23T01:28:04.830Z,19.80
2017-07-23T01:30:32.395Z,19.90
2017-07-23T01:32:59.926Z,19.80
2017-07-23T01:35:27.424Z,19.70
2017-07-23T01:37:54.921Z,19.80
2017-07-23T01:40:22.370Z,19.90
2017-07-23T01:42:49.833Z,19.80
2017-07-23T01:45:17.292Z,19.80
2017-07-23T01:47:44.870Z,19.70
2017-07-23T01:50:12.395Z,19.60
2017-07-23T01:52:39.835Z,19.50
2017-07-23T01:55:07.397Z,19.40
2017-07-23T01:57:34.860Z,19.50
2017-07-23T02:00:02.375Z,19.40
2017-07-23T02:02:29.906Z,19.30
2017-07-23T02:04:57.366Z,19.20
2017-07-23T02:07:24.831Z,19.20
2017-07-23T02:09:52.324Z,19.20
2017-07-23T02:12:19.786Z,19.00
2017-07-23T02:14:47.279Z,19.00
2017-07-23T02:17:14.983Z,18.90
2017-07-23T02:19:42.543Z,18.90
2017-07-23T02:22:10.070Z,18.90
2017-07-23T02:24:37.651Z,18.90
2017-07-23T02:27:05.132Z,18.80
2017-07-23T02:29:32.631Z,18.80
2017-07-23T02:32:00.144Z,18.70
2017-07-23T02:34:27.579Z,18.70
2017-07-23T02:36:55.100Z,18.80
2017-07-23T02:39:22.571Z,18.70
2017-07-23T02:41:50.080Z,18.70
2017-07-23T02:44:17.526Z,18.60
2017-07-23T02:46:45.091Z,18.70
2017-07-23T02:49:12.646Z,18.60
2017-07-23T02:51:40.160Z,18.60
2017-07-23T02:54:07.673Z,18.50
2017-07-23T02:56:35.198Z,18.50
2017-07-23T02:59:02.769Z,18.50
2017-07-23T03:01:30.239Z,18.60
2017-07-23T03:03:57.931Z,18.60
2017-07-23T03:06:25.416Z,18.50
2017-07-23T03:08:52.918Z,18.60
2017-07-23T03:11:20.427Z,18.50
2017-07-23T03:13:47.967Z,18.50
2017-07-23T03:16:15.467Z,18.70
2017-07-23T03:18:42.926Z,18.80
2017-07-23T03:21:10.411Z,18.80
2017-07-23T03:23:37.855Z,18.70
2017-07-23T03:26:05.328Z,18.70
2017-07-23T03:28:32.847Z,18.60
2017-07-23T03:31:00.891Z,18.70
2017-07-23T03:33:28.420Z,18.60
2017-07-23T03:35:55.879Z,18.50
2017-07-23T03:38:23.381Z,18.50
2017-07-23T03:40:50.878Z,18.50
2017-07-23T03:43:18.326Z,18.50
2017-07-23T03:45:46.013Z,18.50
2017-07-23T03:48:13.474Z,18.30
2017-07-23T03:50:41.090Z,18.40
2017-07-23T03:53:08.634Z,18.30
2017-07-23T03:55:36.098Z,18.10
2017-07-23T03:58:03.544Z,18.00
2017-07-23T04:00:31.039Z,17.90
2017-07-23T04:02:59.691Z,17.70
2017-07-23T04:05:27.162Z,17.70
2017-07-23T04:07:54.735Z,17.70
2017-07-23T04:10:22.169Z,17.70
2017-07-23T04:12:50.791Z,17.80
2017-07-23T04:15:18.271Z,17.70
2017-07-23T04:17:45.815Z,17.70
2017-07-23T04:20:13.278Z,17.60
2017-07-23T04:22:40.753Z,17.70
2017-07-23T04:25:08.244Z,17.70
2017-07-23T04:27:35.664Z,17.80
2017-07-23T04:30:03.215Z,17.80
2017-07-23T04:32:30.711Z,17.80
2017-07-23T04:34:58.142Z,17.70
2017-07-23T04:37:25.583Z,17.70
2017-07-23T04:39:53.887Z,17.70
2017-07-23T04:42:21.327Z,17.70
2017-07-23T04:44:49.578Z,17.90
2017-07-23T04:47:17.099Z,17.90
2017-07-23T04:49:44.567Z,17.90
2017-07-23T04:52:12.046Z,17.90
2017-07-23T04:54:39.623Z,17.80
2017-07-23T04:57:07.163Z,17.80
2017-07-23T04:59:34.675Z,17.90
2017-07-23T05:02:02.142Z,17.90
2017-07-23T05:04:29.652Z,17.90
2017-07-23T05:06:57.101Z,17.90
2017-07-23T05:09:24.568Z,17.90
2017-07-23T05:11:52.098Z,17.90
2017-07-23T05:14:19.554Z,18.00
2017-07-23T05:16:47.289Z,18.00
2017-07-23T05:19:14.838Z,18.00
2017-07-23T05:21:42.325Z,18.00
2017-07-23T05:24:09.803Z,17.90
2017-07-23T05:26:37.316Z,17.80
2017-07-23T05:29:04.773Z,17.90
2017-07-23T05:31:42.001Z,18.10
2017-07-23T05:34:09.544Z,18.10
2017-07-23T05:36:36.988Z,18.10
2017-07-23T05:39:04.735Z,18.10
2017-07-23T05:41:32.264Z,18.10
2017-07-23T05:43:59.732Z,18.00
2017-07-23T05:46:27.187Z,18.00
2017-07-23T05:48:54.684Z,18.00
2017-07-23T05:51:22.248Z,18.00
2017-07-23T05:53:51.932Z,18.00
2017-07-23T05:56:19.448Z,17.90
2017-07-23T05:58:46.914Z,18.00
2017-07-23T06:01:14.360Z,18.10
2017-07-23T06:03:41.828Z,18.30
2017-07-23T06:06:09.743Z,18.30
2017-07-23T06:08:37.279Z,18.20
2017-07-23T06:11:04.787Z,18.10
2017-07-23T06:13:33.668Z,18.30
2017-07-23T06:16:01.239Z,19.00
2017-07-23T06:18:28.717Z,20.10
2017-07-23T06:20:56.180Z,21.20
2017-07-23T06:23:23.834Z,22.50
2017-07-23T06:25:51.337Z,23.00
2017-07-23T06:28:18.821Z,24.20
2017-07-23T06:30:46.371Z,24.60
2017-07-23T06:33:14.016Z,24.70
2017-07-23T06:35:41.496Z,24.90
2017-07-23T06:38:09.475Z,24.70
2017-07-23T06:40:36.944Z,24.80
2017-07-23T06:43:04.421Z,24.80
2017-07-23T06:45:31.915Z,24.40
2017-07-23T06:47:59.524Z,23.60
2017-07-23T06:50:26.962Z,23.40
2017-07-23T06:52:54.446Z,23.10
2017-07-23T06:55:21.897Z,23.70
2017-07-23T06:57:49.423Z,24.50
2017-07-23T07:00:16.961Z,24.60
2017-07-23T07:02:44.443Z,24.70
2017-07-23T07:05:11.943Z,25.50
2017-07-23T07:07:39.409Z,25.80
2017-07-23T07:10:06.873Z,25.60
2017-07-23T07:12:34.402Z,25.80
2017-07-23T07:15:01.853Z,25.40
2017-07-23T07:17:31.163Z,26.40
2017-07-23T07:19:58.762Z,27.00
2017-07-23T07:22:26.306Z,27.70
2017-07-23T07:24:54.085Z,26.90
2017-07-23T07:27:21.763Z,26.60
2017-07-23T07:29:49.270Z,26.80
2017-07-23T07:32:21.480Z,27.10
2017-07-23T07:34:49.033Z,27.60
2017-07-23T07:37:16.555Z,27.10
2017-07-23T07:39:44.050Z,26.70
2017-07-23T07:42:11.751Z,26.40
2017-07-23T07:44:39.268Z,25.40
2017-07-23T07:47:06.747Z,24.00
2017-07-23T07:49:34.328Z,22.80
2017-07-23T07:52:01.812Z,22.60
2017-07-23T07:54:29.283Z,21.50
2017-07-23T07:56:56.839Z,21.20
2017-07-23T07:59:24.394Z,20.80
2017-07-23T08:01:52.017Z,20.60
2017-07-23T08:04:19.650Z,20.50
2017-07-23T08:06:48.553Z,20.40
2017-07-23T08:09:17.506Z,20.30
2017-07-23T08:11:45.159Z,20.80
2017-07-23T08:14:12.742Z,21.70
2017-07-23T08:16:40.261Z,23.00
2017-07-23T08:19:07.777Z,23.60
2017-07-23T08:21:35.394Z,25.00
2017-07-23T08:24:02.947Z,26.60
2017-07-23T08:26:30.662Z,27.40
2017-07-23T08:28:59.236Z,26.90
2017-07-23T08:31:26.878Z,25.90
2017-07-23T08:33:55.117Z,25.10
2017-07-23T08:36:22.614Z,24.50
2017-07-23T08:38:50.091Z,24.20
2017-07-23T08:41:17.730Z,24.20
2017-07-23T08:43:45.306Z,24.30
2017-07-23T08:46:12.886Z,23.80
2017-07-23T08:48:40.404Z,24.20
2017-07-23T08:51:07.950Z,24.60
2017-07-23T08:53:35.427Z,24.80
2017-07-23T08:56:02.999Z,24.40
2017-07-23T08:58:30.596Z,24.80
2017-07-23T09:00:58.296Z,24.70
2017-07-23T09:03:25.858Z,24.60
2017-07-23T09:05:53.415Z,24.70
2017-07-23T09:08:20.865Z,24.60
2017-07-23T09:10:48.739Z,23.80
2017-07-23T09:13:18.003Z,23.70
2017-07-23T09:15:47.753Z,23.70
2017-07-23T09:18:15.280Z,23.60
2017-07-23T09:20:43.023Z,23.50
2017-07-23T09:23:11.438Z,23.20
2017-07-23T09:25:41.693Z,22.70
2017-07-23T09:28:09.228Z,23.10
2017-07-23T09:30:36.869Z,22.90
2017-07-23T09:33:04.470Z,23.00
2017-07-23T09:35:32.027Z,22.70
2017-07-23T09:37:59.554Z,22.90
2017-07-23T09:40:28.539Z,23.30
2017-07-23T09:42:56.243Z,23.70
2017-07-23T09:45:23.857Z,23.70
2017-07-23T09:47:51.336Z,23.20
2017-07-23T09:50:19.237Z,22.80
2017-07-23T09:52:46.782Z,22.60
2017-07-23T09:55:14.246Z,23.40
2017-07-23T09:57:41.720Z,23.50
2017-07-23T10:00:09.723Z,23.40
2017-07-23T10:02:37.364Z,23.40
2017-07-23T10:05:04.874Z,23.30
2017-07-23T10:07:32.310Z,23.40
2017-07-23T10:09:59.836Z,23.50
2017-07-23T10:12:27.375Z,23.60
2017-07-23T10:14:54.877Z,23.90
2017-07-23T10:17:22.362Z,24.30
2017-07-23T10:19:51.090Z,25.10
2017-07-23T10:22:18.685Z,24.50
2017-07-23T10:24:46.340Z,23.80
2017-07-23T10:27:13.831Z,23.40
2017-07-23T10:29:41.429Z,22.70
2017-07-23T10:32:09.347Z,22.20
2017-07-23T10:34:36.940Z,21.80
2017-07-23T10:37:05.483Z,21.70
2017-07-23T10:39:33.021Z,22.00
2017-07-23T10:42:00.524Z,22.50
2017-07-23T10:44:28.074Z,23.00
2017-07-23T10:46:55.595Z,23.00
2017-07-23T10:49:24.416Z,22.70
2017-07-23T10:51:51.875Z,22.90
2017-07-23T10:54:19.583Z,22.80
2017-07-23T10:56:47.162Z,22.90
2017-07-23T10:59:14.759Z,23.10
2017-07-23T11:01:43.098Z,23.10
2017-07-23T11:04:10.799Z,22.90
2017-07-23T11:06:38.367Z,22.30
2017-07-23T11:09:05.914Z,21.90
2017-07-23T11:11:33.391Z,21.80
2017-07-23T11:14:00.884Z,21.80
2017-07-23T11:16:28.476Z,22.40
2017-07-23T11:18:55.935Z,22.70
2017-07-23T11:21:23.469Z,22.70
2017-07-23T11:23:50.971Z,22.70
2017-07-23T11:26:18.488Z,23.00
2017-07-23T11:28:46.086Z,23.00
2017-07-23T11:31:13.572Z,23.50
2017-07-23T11:33:41.554Z,24.00
2017-07-23T11:36:09.094Z,24.20
2017-07-23T11:38:36.571Z,24.10
2017-07-23T11:41:04.747Z,23.80
2017-07-23T11:43:34.169Z,23.60
2017-07-23T11:46:01.803Z,23.30
2017-07-23T11:48:29.318Z,23.10
2017-07-23T11:50:56.803Z,23.20
2017-07-23T11:53:24.339Z,23.50
2017-07-23T11:55:51.967Z,23.60
2017-07-23T11:58:19.562Z,23.40
2017-07-23T12:00:47.042Z,23.60
2017-07-23T12:03:14.511Z,23.40
2017-07-23T12:05:42.112Z,23.60
2017-07-23T12:08:09.694Z,23.50
2017-07-23T12:10:37.305Z,23.30
2017-07-23T12:13:04.775Z,23.40
2017-07-23T12:15:33.142Z,23.40
2017-07-23T12:18:00.667Z,23.20
2017-07-23T12:20:28.222Z,23.30
2017-07-23T12:22:55.835Z,23.50
2017-07-23T12:25:23.355Z,23.50
2017-07-23T12:27:51.198Z,23.70
2017-07-23T12:30:19.493Z,23.90
2017-07-23T12:32:47.042Z,23.90
2017-07-23T12:35:15.329Z,23.80
2017-07-23T12:37:42.927Z,23.80
2017-07-23T12:40:10.503Z,23.20
2017-07-23T12:42:38.030Z,23.10
2017-07-23T12:45:05.502Z,23.00
2017-07-23T12:47:33.122Z,22.80
2017-07-23T12:50:00.780Z,22.60
2017-07-23T12:52:28.351Z,22.50
2017-07-23T12:54:58.167Z,22.50
2017-07-23T12:57:25.776Z,22.20
2017-07-23T12:59:53.392Z,22.10
2017-07-23T13:02:20.957Z,22.20
2017-07-23T13:04:48.486Z,22.40
2017-07-23T13:07:15.971Z,22.30
2017-07-23T13:09:43.603Z,22.40
2017-07-23T13:12:11.076Z,22.90
2017-07-23T13:14:38.578Z,23.20
2017-07-23T13:17:06.103Z,23.10
2017-07-23T13:19:33.931Z,23.10
2017-07-23T13:22:01.490Z,22.80
2017-07-23T13:24:28.947Z,22.90
2017-07-23T13:26:56.403Z,23.00
2017-07-23T13:29:23.991Z,22.80
2017-07-23T13:31:51.505Z,22.70
2017-07-23T13:34:19.030Z,22.60
2017-07-23T13:36:46.642Z,22.50
2017-07-23T13:39:14.316Z,22.40
2017-07-23T13:41:42.153Z,22.60
2017-07-23T13:44:09.662Z,22.50
2017-07-23T13:46:37.291Z,22.60
2017-07-23T13:49:04.749Z,22.90
2017-07-23T13:51:32.255Z,22.90
2017-07-23T13:53:59.767Z,23.00
2017-07-23T13:56:27.203Z,23.10
2017-07-23T13:58:54.721Z,23.20
2017-07-23T14:01:22.202Z,23.20
2017-07-23T14:03:50.941Z,23.10
2017-07-23T14:06:18.636Z,23.00
2017-07-23T14:08:46.272Z,23.00
2017-07-23T14:11:14.096Z,23.30
2017-07-23T14:13:41.682Z,23.50
2017-07-23T14:16:09.204Z,23.50
2017-07-23T14:18:37.797Z,23.60
2017-07-23T14:21:05.361Z,23.50
2017-07-23T14:23:32.908Z,23.40
2017-07-23T14:26:01.938Z,23.50
2017-07-23T14:28:29.452Z,23.50
2017-07-23T14:30:56.918Z,23.30
2017-07-23T14:33:24.408Z,23.20
2017-07-23T14:35:52.134Z,23.10
2017-07-23T14:38:19.683Z,23.30
2017-07-23T14:40:47.167Z,23.40
2017-07-23T14:43:14.652Z,23.30
2017-07-23T14:45:42.412Z,23.20
2017-07-23T14:48:09.931Z,23.00
2017-07-23T14:50:38.287Z,22.70
2017-07-23T14:53:05.788Z,22.70
2017-07-23T14:55:33.681Z,22.70
2017-07-23T14:58:01.148Z,22.70
2017-07-23T15:00:28.796Z,22.50
2017-07-23T15:02:56.347Z,22.40
2017-07-23T15:05:24.688Z,22.30
2017-07-23T15:07:52.167Z,22.30
2017-07-23T15:10:19.622Z,21.50
2017-07-23T15:12:48.706Z,20.80
2017-07-23T15:15:16.166Z,20.70
2017-07-23T15:17:43.783Z,20.30
2017-07-23T15:20:11.244Z,19.90
2017-07-23T15:22:38.726Z,19.70
2017-07-23T15:25:06.251Z,19.60
2017-07-23T15:27:34.335Z,19.50
2017-07-23T15:30:01.829Z,19.60
2017-07-23T15:32:29.290Z,19.80
2017-07-23T15:34:56.887Z,19.90
2017-07-23T15:37:24.451Z,20.10
2017-07-23T15:39:52.001Z,20.40
2017-07-23T15:42:19.505Z,20.40
2017-07-23T15:44:47.859Z,20.50
2017-07-23T15:47:16.234Z,20.60
2017-07-23T15:49:43.845Z,20.70
2017-07-23T15:52:12.176Z,20.60
2017-07-23T15:54:42.752Z,20.40
2017-07-23T15:57:10.277Z,20.50
2017-07-23T15:59:38.748Z,20.60
2017-07-23T16:02:06.487Z,20.90
2017-07-23T16:04:37.607Z,21.00
2017-07-23T16:07:08.107Z,21.00
2017-07-23T16:09:37.951Z,21.10
2017-07-23T16:12:08.682Z,21.00
2017-07-23T16:14:37.602Z,21.10
2017-07-23T16:17:05.204Z,21.10
2017-07-23T16:24:57.651Z,20.40
2017-07-23T16:36:14.897Z,20.90
2017-07-23T16:38:44.742Z,20.90
2017-07-23T16:41:13.465Z,20.80
2017-07-23T16:43:42.428Z,20.70
2017-07-23T16:46:14.252Z,20.70
2017-07-23T16:51:22.913Z,20.80
2017-07-23T16:53:50.591Z,20.90
2017-07-23T16:56:18.883Z,20.80
2017-07-23T16:58:50.230Z,20.90
2017-07-23T17:06:34.645Z,21.00
2017-07-23T17:09:04.612Z,20.80
2017-07-23T17:11:33.363Z,20.80
2017-07-23T17:14:00.863Z,20.80
2017-07-23T17:16:28.367Z,20.80
2017-07-23T17:18:59.906Z,20.70
2017-07-23T17:24:01.563Z,20.80
2017-07-23T17:26:29.154Z,20.80
2017-07-23T17:28:58.035Z,20.80
2017-07-23T17:31:25.763Z,20.80
2017-07-23T17:33:53.990Z,20.70
2017-07-23T17:36:24.682Z,20.80
2017-07-23T17:38:56.009Z,20.90
2017-07-23T17:41:26.010Z,20.90
2017-07-23T17:43:53.700Z,21.10
2017-07-23T17:49:02.419Z,20.90
2017-07-23T17:51:30.081Z,20.90
2017-07-23T17:53:57.632Z,21.00
2017-07-23T17:56:28.848Z,20.90
2017-07-23T17:58:57.088Z,20.90
2017-07-23T18:01:24.737Z,20.90
2017-07-23T18:03:52.497Z,20.90
2017-07-23T18:06:20.860Z,20.90
2017-07-23T18:08:48.320Z,21.00
2017-07-23T18:11:15.859Z,21.00
2017-07-23T18:13:44.853Z,21.10
2017-07-23T18:16:12.386Z,21.10
2017-07-23T18:18:40.162Z,21.10
2017-07-23T18:21:07.938Z,20.90
2017-07-23T18:23:35.676Z,20.80
2017-07-23T18:26:04.414Z,20.70
2017-07-23T18:28:35.793Z,20.70
2017-07-23T18:31:03.448Z,20.70
2017-07-23T18:33:31.059Z,20.60
2017-07-23T18:35:59.394Z,20.50
2017-07-23T18:38:27.630Z,20.50
2017-07-23T18:40:56.704Z,20.40
2017-07-23T18:43:24.755Z,20.40
2017-07-23T18:45:56.385Z,20.50
2017-07-23T18:48:24.091Z,20.40
2017-07-23T18:50:52.962Z,20.40
2017-07-23T18:53:22.239Z,20.40
2017-07-23T18:55:49.933Z,20.40
2017-07-23T19:00:56.132Z,20.30
2017-07-23T19:03:24.032Z,20.20
2017-07-23T19:05:53.704Z,20.20
2017-07-23T19:08:28.290Z,20.10
2017-07-23T19:13:37.310Z,20.00
2017-07-23T19:16:07.083Z,19.80
2017-07-23T19:18:35.694Z,19.80
2017-07-23T19:21:04.053Z,19.80
2017-07-23T19:23:31.571Z,19.70
2017-07-23T19:25:59.211Z,19.70
2017-07-23T19:28:31.581Z,19.70
2017-07-23T19:30:59.988Z,19.60
2017-07-23T19:33:29.057Z,19.50
2017-07-23T19:35:57.941Z,19.50
2017-07-23T19:38:27.133Z,19.50
2017-07-23T19:40:54.615Z,19.40
2017-07-23T19:43:22.156Z,19.40
2017-07-23T19:45:49.942Z,19.40
2017-07-23T19:48:18.613Z,19.50
2017-07-23T19:50:46.565Z,19.40
2017-07-23T19:53:14.146Z,19.30
2017-07-23T19:55:41.743Z,19.30
2017-07-23T19:58:09.267Z,19.30
2017-07-23T20:00:36.770Z,19.30
2017-07-23T20:03:04.339Z,19.20
2017-07-23T20:05:31.832Z,19.20
2017-07-23T20:07:59.635Z,19.30
2017-07-23T20:10:28.385Z,19.40
2017-07-23T20:12:58.467Z,19.30
2017-07-23T20:15:26.088Z,19.30
2017-07-23T20:17:54.409Z,19.30
2017-07-23T20:20:22.008Z,19.30
2017-07-23T20:22:50.060Z,19.20
2017-07-23T20:25:17.544Z,19.30
2017-07-23T20:27:44.999Z,19.20
2017-07-23T20:30:12.614Z,19.10
2017-07-23T20:32:40.583Z,19.00
2017-07-23T20:35:08.317Z,19.10
2017-07-23T20:37:35.896Z,19.10
2017-07-23T20:40:04.520Z,19.10
2017-07-23T20:42:32.119Z,19.10
2017-07-23T20:45:00.711Z,19.10
2017-07-23T20:47:34.032Z,19.00
2017-07-23T20:50:01.581Z,19.00
2017-07-23T20:52:29.350Z,19.00
2017-07-23T20:54:58.659Z,19.10
2017-07-23T20:57:26.238Z,19.10
2017-07-23T20:59:55.307Z,19.10
2017-07-23T21:02:24.835Z,19.10
2017-07-23T21:10:18.045Z,19.00
2017-07-23T21:12:49.052Z,19.00
2017-07-23T21:15:18.157Z,19.00
2017-07-23T21:17:45.809Z,19.00
2017-07-23T21:20:18.331Z,18.80
2017-07-23T21:22:58.288Z,18.80
2017-07-23T21:25:29.102Z,18.80
2017-07-23T21:28:01.418Z,18.80
2017-07-23T21:30:30.977Z,18.70
2017-07-23T21:33:02.359Z,18.70
2017-07-23T21:35:33.226Z,18.60
2017-07-23T21:38:17.840Z,18.60
2017-07-23T21:40:55.034Z,18.60
2017-07-23T21:43:25.764Z,18.60
2017-07-23T21:45:58.107Z,18.50
2017-07-23T21:48:26.238Z,18.50
2017-07-23T21:53:40.687Z,18.40
2017-07-23T21:56:11.616Z,18.40
2017-07-23T21:58:39.175Z,18.30
2017-07-23T22:01:09.807Z,18.30
2017-07-23T22:03:38.304Z,18.20
2017-07-23T22:06:09.691Z,18.30
2017-07-23T22:08:37.999Z,18.20
2017-07-23T22:11:05.548Z,18.20
2017-07-23T22:13:33.084Z,18.20
2017-07-23T22:16:00.648Z,18.10
2017-07-23T22:18:28.101Z,18.10
2017-07-23T22:20:55.922Z,18.10
2017-07-23T22:23:27.089Z,18.10
2017-07-23T22:25:54.726Z,18.00
2017-07-23T22:28:22.475Z,18.00
2017-07-23T22:30:57.751Z,18.00
2017-07-23T22:33:32.957Z,18.00
2017-07-23T22:36:00.521Z,18.00
2017-07-23T22:38:29.665Z,18.10
2017-07-23T22:40:59.477Z,18.00
2017-07-23T22:43:29.861Z,18.10
2017-07-23T22:45:57.533Z,18.00
2017-07-23T22:48:26.351Z,18.00
2017-07-23T22:50:54.632Z,18.00
2017-07-23T22:53:22.893Z,18.10
2017-07-23T22:55:50.512Z,18.00
2017-07-23T22:58:18.064Z,18.00
2017-07-23T23:00:45.703Z,18.00
2017-07-23T23:03:13.505Z,18.00
2017-07-23T23:05:41.811Z,18.00
2017-07-23T23:08:09.349Z,18.00
2017-07-23T23:10:36.920Z,18.00
2017-07-23T23:13:04.429Z,18.00
2017-07-23T23:15:32.956Z,18.00
2017-07-23T23:18:01.599Z,17.90
2017-07-23T23:20:29.079Z,18.00
2017-07-23T23:22:56.595Z,18.00
2017-07-23T23:25:25.052Z,17.90
2017-07-23T23:27:53.440Z,17.90
2017-07-23T23:30:21.722Z,17.90
2017-07-23T23:32:49.303Z,17.90
2017-07-23T23:35:17.419Z,17.90
2017-07-23T23:37:45.764Z,17.90
2017-07-23T23:40:14.588Z,17.90
2017-07-23T23:42:42.071Z,17.90
2017-07-23T23:45:10.866Z,17.90
2017-07-23T23:47:40.878Z,17.90
2017-07-23T23:50:08.424Z,17.90
2017-07-23T23:52:35.991Z,17.90
2017-07-23T23:55:04.277Z,17.90
2017-07-23T23:57:32.517Z,18.00
